Latest Weather Observations for Browse Island

IDW60801

Issued at 11:02 pm WST Tuesday 28 July 2015 (issued every 30 minutes, with the page automatically refreshed every 10 minutes)

About weather observations | Map of weather stations | Latest weather observations for WA | Other Formats
Station Details ID: 200784 Name: BROWSE ISLAND Lat: -14.11 Lon: 123.55 Height: 3.7 m
Data from the previous 72 hours. | See also: Recent months for locations in Western Australia
Date/Time
WST
Temp
°C
App
Temp
°C
Dew
Point
Rel
Hum
%
Delta-T
°C
Wind Press
QNH
hPa
Press
MSL
hPa
Rain
since 9 am
mm
Dir
 
Spd
km/h
Gust
km/h
Spd
kts
Gust
kts
28/11:00pm 26.0 - - - - ENE 20 22 11 12 1017.0 1017.6 -
28/10:30pm 26.0 - - - - ENE 22 24 12 13 1017.0 - -
28/10:00pm 26.2 - - - - ENE 19 - 10 - 1017.0 1017.8 -
28/09:30pm 26.0 - - - - ENE 20 - 11 - 1017.0 - -
28/09:00pm 26.6 - - - - NE 19 - 10 - 1017.0 1017.6 -
28/08:30pm 27.0 - - - - NE 17 - 9 - 1017.0 - -
28/08:00pm 26.5 - - - - ENE 15 - 8 - 1017.0 1017.6 -
28/07:30pm 26.0 - - - - ENE 19 - 10 - 1017.0 - -
28/07:00pm 26.4 - - - - NE 19 - 10 - 1017.0 1017.2 -
28/06:30pm 26.0 - - - - NE 17 - 9 - 1017.0 - -
28/06:00pm 26.2 - - - - NE 19 24 10 13 1016.0 1016.8 -
28/05:30pm 26.0 - - - - ENE 20 - 11 - 1016.0 - -
28/05:00pm 26.5 - - - - ENE 22 - 12 - 1016.0 1016.4 -
28/04:30pm 27.0 - - - - ENE 20 - 11 - 1016.0 - -
28/04:00pm 26.9 - - - - ENE 24 - 13 - 1016.0 1016.0 -
28/03:30pm 27.0 - - - - ENE 26 - 14 - 1015.0 - -
28/03:00pm 27.2 - - - - ENE 32 - 17 - 1015.0 1015.7 -
28/02:30pm 27.0 - - - - ENE 32 - 17 - 1015.0 - -
28/02:00pm 27.0 - - - - ENE 32 - 17 - 1016.0 1016.0 -
28/01:30pm 28.0 - - - - E 32 - 17 - 1016.0 - -
28/01:00pm 27.6 - - - - E 30 - 16 - 1016.0 1016.8 -
28/12:30pm 28.0 - - - - E 32 - 17 - 1017.0 - -
28/12:00pm 27.7 - - - - E 35 - 19 - 1017.0 1017.5 -
28/11:30am 28.0 - - - - E 35 - 19 - 1018.0 - -
28/11:00am 28.0 - - - - E 37 - 20 - 1018.0 1018.3 -
28/10:30am 28.0 - - - - E 35 - 19 - 1018.0 - -
28/10:00am 28.4 - - - - E 37 - 20 - 1018.0 1018.8 -
28/09:30am 28.0 - - - - E 26 30 14 16 1019.0 - -
28/09:00am 27.4 - - - - E 20 - 11 - 1018.0 1018.8 -
28/08:30am 27.0 - - - - E 20 - 11 - 1018.0 - -
28/08:00am 27.3 - - - - E 17 - 9 - 1018.0 1018.2 -
28/07:30am 27.0 - - - - E 17 20 9 11 1018.0 - -
28/07:00am 26.5 - - - - ESE 17 - 9 - 1017.0 1017.6 -
28/06:30am 26.0 - - - - E 15 - 8 - 1017.0 - -
28/06:00am 26.2 - - - - ESE 13 13 7 7 1016.0 1016.7 -
28/05:30am 26.0 - - - - E 11 - 6 - 1016.0 - -
28/05:00am 25.9 - - - - E 9 - 5 - 1015.0 1015.7 -
28/04:30am 26.0 - - - - E 9 - 5 - 1015.0 - -
28/04:00am 25.9 - - - - ESE 11 - 6 - 1015.0 1015.6 -
28/03:30am 26.0 - - - - ESE 11 - 6 - 1015.0 - -
28/03:00am 25.9 - - - - ESE 11 - 6 - 1015.0 1015.8 -
28/02:30am 26.0 - - - - ESE 9 - 5 - 1016.0 - -
28/02:00am 26.0 - - - - ESE 9 - 5 - 1016.0 1016.2 -
28/01:30am 26.0 - - - - ESE 9 - 5 - 1016.0 - -
28/01:00am 25.9 - - - - ESE 9 - 5 - 1016.0 1016.5 -
28/12:30am 26.0 - - - - ESE 9 - 5 - 1016.0 - -
28/12:00am 26.1 - - - - E 9 9 5 5 1017.0 1017.0 -
 
Date/Time
WST
Temp
°C
App
Temp
°C
Dew
Point
Rel
Hum
%
Delta-T
°C
Wind Press
QNH
hPa
Press
MSL
hPa
Rain
since 9 am
mm
Dir
 
Spd
km/h
Gust
km/h
Spd
kts
Gust
kts
27/11:30pm 26.0 - - - - E 7 - 4 - 1017.0 - -
27/11:00pm 26.1 - - - - E 11 - 6 - 1017.0 1017.3 -
27/10:30pm 26.0 - - - - E 9 - 5 - 1017.0 - -
27/10:00pm 26.1 - - - - E 11 - 6 - 1017.0 1017.3 -
27/09:30pm 26.0 - - - - E 13 - 7 - 1017.0 - -
27/09:00pm 26.1 - - - - E 11 - 6 - 1016.0 1016.8 -
27/08:30pm 26.0 - - - - E 9 - 5 - 1016.0 - -
27/08:00pm 26.0 - - - - ESE 7 - 4 - 1016.0 1016.6 -
27/07:30pm 26.0 - - - - E 6 - 3 - 1016.0 - -
27/07:00pm 26.1 - - - - SE 2 - 1 - 1015.0 1015.7 -
27/06:30pm 26.0 - - - - CALM 0 - 0 - 1015.0 - -
27/06:00pm 26.2 - - - - CALM 0 - 0 - 1015.0 1015.1 -
27/05:30pm 27.0 - - - - ENE 6 - 3 - 1015.0 - -
27/05:00pm 27.2 - - - - E 7 - 4 - 1015.0 1015.0 -
27/04:30pm 28.0 - - - - E 9 - 5 - 1014.0 - -
27/04:00pm 27.8 - - - - ENE 9 - 5 - 1014.0 1014.5 -
27/03:30pm 28.0 - - - - E 11 - 6 - 1014.0 - -
27/03:00pm 27.8 - - - - E 13 - 7 - 1014.0 1014.5 -
27/02:30pm 29.0 - - - - E 13 - 7 - 1014.0 - -
27/02:00pm 28.2 - - - - E 15 - 8 - 1014.0 1014.6 -
27/01:30pm 28.0 - - - - E 17 - 9 - 1014.0 - -
27/01:00pm 27.8 - - - - ESE 19 - 10 - 1015.0 1015.2 -
27/12:30pm 28.0 - - - - SE 17 - 9 - 1015.0 - -
27/12:00pm 27.8 - - - - SE 19 - 10 - 1015.0 1015.8 -
27/11:30am 28.0 - - - - SSE 13 - 7 - 1016.0 - -
27/11:00am 27.4 - - - - S 11 - 6 - 1016.0 1016.3 -
27/10:30am 28.0 - - - - SSE 11 - 6 - 1016.0 - -
27/10:00am 27.3 - - - - S 9 - 5 - 1016.0 1016.8 -
27/09:30am 27.0 - - - - SSW 6 - 3 - 1017.0 - -
27/09:00am 26.7 - - - - S 7 - 4 - 1017.0 1017.3 -
27/08:30am 28.0 - - - - NE 2 - 1 - 1017.0 - -
27/08:00am 26.7 - - - - CALM 0 - 0 - 1017.0 1017.3 -
27/07:30am 26.0 - - - - CALM 0 - 0 - 1017.0 - -
27/07:00am 26.2 - - - - CALM 0 - 0 - 1016.0 1016.8 -
27/06:30am 26.0 - - - - CALM 0 - 0 - 1016.0 - -
27/06:00am 25.2 - - - - CALM 0 - 0 - 1016.0 1016.3 -
27/05:30am 25.0 - - - - CALM 0 - 0 - 1016.0 - -
27/05:00am 25.4 - - - - CALM 0 - 0 - 1016.0 1016.1 -
27/04:30am 26.0 - - - - CALM 0 - 0 - 1016.0 - -
27/04:00am 25.6 - - - - CALM 0 - 0 - 1016.0 1016.0 -
27/03:30am 26.0 - - - - CALM 0 - 0 - 1016.0 - -
27/03:00am 25.5 - - - - CALM 0 - 0 - 1016.0 1016.0 -
27/02:30am 26.0 - - - - CALM 0 - 0 - 1016.0 - -
27/02:00am 25.7 - - - - SSE 2 - 1 - 1016.0 1016.4 -
27/01:30am 26.0 - - - - SSE 6 - 3 - 1016.0 - -
27/01:00am 26.0 - - - - SSE 9 - 5 - 1016.0 1016.7 -
27/12:30am 26.0 - - - - SSE 9 - 5 - 1017.0 - -
27/12:00am 26.1 - - - - SSE 9 - 5 - 1017.0 1017.2 -
 
Date/Time
WST
Temp
°C
App
Temp
°C
Dew
Point
Rel
Hum
%
Delta-T
°C
Wind Press
QNH
hPa
Press
MSL
hPa
Rain
since 9 am
mm
Dir
 
Spd
km/h
Gust
km/h
Spd
kts
Gust
kts
26/11:30pm 26.0 - - - - SSE 7 - 4 - 1017.0 - -
26/11:00pm 26.3 - - - - SSE 9 - 5 - 1017.0 1017.7 -
26/10:30pm 26.0 - - - - SE 7 - 4 - 1017.0 - -
26/10:00pm 26.3 - - - - SE 7 - 4 - 1017.0 1017.8 -
26/09:30pm 26.0 - - - - SE 6 - 3 - 1017.0 - -
26/09:00pm 26.3 - - - - CALM 0 - 0 - 1017.0 1017.6 -
26/08:30pm 27.0 - - - - S 9 - 5 - 1017.0 - -
26/08:00pm 26.8 - - - - S 11 - 6 - 1017.0 1017.2 -
26/07:30pm 27.0 - - - - S 15 - 8 - 1016.0 - -
26/07:00pm 26.7 - - - - S 15 - 8 - 1016.0 1016.4 -
26/06:30pm 27.0 - - - - S 19 - 10 - 1016.0 - -
26/06:00pm 26.2 - - - - S 20 - 11 - 1015.0 1015.7 -
26/05:30pm 26.0 - - - - S 24 - 13 - 1015.0 - -
26/05:00pm 26.1 - - - - S 24 - 13 - 1015.0 1015.2 -
26/04:30pm 26.0 - - - - S 26 - 14 - 1014.0 - -
26/04:00pm 26.2 - - - - S 24 - 13 - 1014.0 1014.6 -
26/03:30pm 26.0 - - - - S 24 - 13 - 1014.0 - -
26/03:00pm 26.4 - - - - S 22 - 12 - 1014.0 1014.6 -
26/02:30pm 27.0 - - - - S 24 - 13 - 1014.0 - -
26/02:00pm 26.7 - - - - SSE 22 - 12 - 1014.0 1014.8 -
26/01:30pm 27.0 - - - - SSE 24 - 13 - 1015.0 - -
26/01:00pm 26.6 - - - - S 24 - 13 - 1015.0 1015.2 -
26/12:30pm 27.0 - - - - S 26 - 14 - 1015.0 - -
26/12:00pm 26.4 - - - - S 26 - 14 - 1016.0 1016.0 -
26/11:30am 26.0 - - - - S 22 - 12 - 1016.0 - -
26/11:00am 26.6 - - - - S 20 - 11 - 1017.0 1016.9 -
26/10:30am 26.0 - - - - S 20 - 11 - 1017.0 - -
26/10:00am 26.2 - - - - S 19 - 10 - 1017.0 1017.6 -
26/09:30am 26.0 - - - - S 22 - 12 - 1018.0 - -
26/09:00am 26.0 - - - - S 19 - 10 - 1018.0 1018.3 -
26/08:30am 26.0 - - - - S 15 - 8 - 1018.0 - -
26/08:00am 25.9 - - - - S 19 - 10 - 1018.0 1018.1 -
26/07:30am 26.0 - - - - S 20 - 11 - 1017.0 - -
26/07:00am 26.2 - - - - S 15 - 8 - 1017.0 1017.4 -
26/06:30am 26.0 - - - - S 15 - 8 - 1017.0 - -
26/06:00am 26.1 - - - - SE 11 - 6 - 1017.0 1017.1 -
26/05:30am 26.0 - - - - SE 13 - 7 - 1016.0 - -
26/05:00am 26.0 - - - - SE 11 - 6 - 1016.0 1016.3 -
26/04:30am 26.0 - - - - SSE 11 - 6 - 1016.0 - -
26/04:00am 26.2 - - - - S 9 - 5 - 1016.0 1015.9 -
26/03:30am 26.0 - - - - S 7 - 4 - 1015.0 - -
26/03:00am 26.0 - - - - SSW 7 - 4 - 1015.0 1015.8 -
26/02:30am 26.0 - - - - SSW 9 - 5 - 1015.0 - -
26/02:00am 26.1 - - - - SW 9 - 5 - 1015.0 1015.7 -
26/01:30am 26.0 - - - - SSW 9 - 5 - 1016.0 - -
26/01:00am 26.0 - - - - SSW 11 - 6 - 1016.0 1016.2 -
26/12:30am 26.0 - - - - S 13 - 7 - 1016.0 - -
26/12:00am 26.1 - - - - SSW 11 - 6 - 1016.0 1016.5 -
 
Date/Time
WST
Temp
°C
App
Temp
°C
Dew
Point
Rel
Hum
%
Delta-T
°C
Wind Press
QNH
hPa
Press
MSL
hPa
Rain
since 9 am
mm
Dir
 
Spd
km/h
Gust
km/h
Spd
kts
Gust
kts
25/11:30pm 26.0 - - - - SSW 9 - 5 - 1016.0 - -

Other Formats:

Comma delimited format used in spreadsheet applications
http://www.bom.gov.au/fwo/IDW60801/IDW60801.94103.axf

JavaScript Object Notation format (JSON) in row-major order
http://www.bom.gov.au/fwo/IDW60801/IDW60801.94103.json